KLYO/LYO METAR and TAF weather

Enter ICAO airport designator
Station Type Date Time Source
KLYO METAR 2019/08/25 18:15 UTC NOAA

KLYO 251815Z AUTO 30006KT 10SM CLR 25/21 A2987 RMK AO2 P0001 T02520207


Station Type Date Time Source
KLYO Decoded METAR 2019/08/25 18:15 UTC NOAA

Station name not available
Aug 25, 2019 - 02:15 PM EDT / 2019.08.25 1815 UTC
Wind: from the WNW (300 degrees) at 7 MPH (6 KT):0
Visibility: 10 mile(s):0
Sky conditions: clear
Precipitation last hour: 0.01 inches
Temperature: 77.4 F (25.2 C)
Dew Point: 69.3 F (20.7 C)
Relative Humidity: 76%
Pressure (altimeter): 29.87 in. Hg (1011 hPa)
ob: KLYO 251815Z AUTO 30006KT 10SM CLR 25/21 A2987 RMK AO2 P0001 T02520207
cycle: 18

Station Type Date Time Source
KLYO TAF UTC NOAA

Error!

Example: see airport list